createdAt,value
2023-02-25T00:01:16.026Z,6.20
2023-02-25T00:03:44.249Z,6.00
2023-02-25T00:06:14.474Z,5.90
2023-02-25T00:08:45.427Z,5.90
2023-02-25T00:11:15.127Z,5.80
2023-02-25T00:13:44.040Z,5.80
2023-02-25T00:16:14.473Z,5.80
2023-02-25T00:18:44.431Z,5.70
2023-02-25T00:21:15.132Z,5.60
2023-02-25T00:23:44.525Z,5.60
2023-02-25T00:26:13.018Z,5.50
2023-02-25T00:28:41.406Z,5.50
2023-02-25T00:31:10.468Z,5.50
2023-02-25T00:33:42.221Z,5.40
2023-02-25T00:36:13.008Z,5.30
2023-02-25T00:38:41.314Z,5.30
2023-02-25T00:41:12.670Z,5.30
2023-02-25T00:43:42.739Z,5.20
2023-02-25T00:46:11.623Z,5.20
2023-02-25T00:48:42.056Z,5.10
2023-02-25T00:51:12.373Z,5.10
2023-02-25T00:53:40.825Z,5.00
2023-02-25T00:56:11.237Z,5.00
2023-02-25T00:58:40.082Z,4.90
2023-02-25T01:01:17.722Z,4.90
2023-02-25T01:03:49.264Z,4.80
2023-02-25T01:06:17.903Z,4.70
2023-02-25T01:08:46.200Z,4.70
2023-02-25T01:11:16.268Z,4.70
2023-02-25T01:13:44.571Z,4.70
2023-02-25T01:16:17.938Z,4.60
2023-02-25T01:18:48.576Z,4.50
2023-02-25T01:21:18.887Z,4.50
2023-02-25T01:23:47.282Z,4.50
2023-02-25T01:26:16.258Z,4.50
2023-02-25T01:28:45.126Z,4.60
2023-02-25T01:31:19.163Z,4.60
2023-02-25T01:33:48.722Z,4.70
2023-02-25T01:36:16.663Z,4.70
2023-02-25T01:38:44.647Z,4.70
2023-02-25T01:41:12.646Z,4.70
2023-02-25T01:43:41.579Z,4.70
2023-02-25T01:46:09.961Z,4.60
2023-02-25T01:48:41.592Z,4.60
2023-02-25T01:51:13.007Z,4.50
2023-02-25T01:53:45.081Z,4.40
2023-02-25T01:56:17.308Z,4.40
2023-02-25T01:58:45.784Z,4.30
2023-02-25T02:01:17.913Z,4.30
2023-02-25T02:03:47.986Z,4.30
2023-02-25T02:06:20.767Z,4.30
2023-02-25T02:08:49.321Z,4.20
2023-02-25T02:11:17.430Z,4.20
2023-02-25T02:13:49.656Z,4.20
2023-02-25T02:16:40.718Z,4.30
2023-02-25T02:19:25.120Z,4.20
2023-02-25T02:22:04.404Z,4.20
2023-02-25T02:25:14.940Z,4.20
2023-02-25T02:28:04.814Z,4.30
2023-02-25T02:30:43.625Z,4.30
2023-02-25T02:33:23.019Z,4.30
2023-02-25T02:35:57.420Z,4.30
2023-02-25T02:38:32.025Z,4.30
2023-02-25T02:41:07.909Z,4.30
2023-02-25T02:43:43.472Z,4.40
2023-02-25T02:46:18.697Z,4.40
2023-02-25T02:48:54.401Z,4.50
2023-02-25T02:51:27.730Z,4.50
2023-02-25T02:53:58.948Z,4.50
2023-02-25T02:56:30.561Z,4.60
2023-02-25T02:59:05.327Z,4.60
2023-02-25T03:01:36.021Z,4.60
2023-02-25T03:04:09.671Z,4.60
2023-02-25T03:06:41.291Z,4.70
2023-02-25T03:09:14.080Z,4.70
2023-02-25T03:11:42.922Z,4.70
2023-02-25T03:14:12.888Z,4.70
2023-02-25T03:16:43.526Z,4.70
2023-02-25T03:19:18.500Z,4.70
2023-02-25T03:21:50.728Z,4.70
2023-02-25T03:24:22.378Z,4.70
2023-02-25T03:26:52.946Z,4.60
2023-02-25T03:29:26.802Z,4.70
2023-02-25T03:31:59.832Z,4.60
2023-02-25T03:34:35.982Z,4.60
2023-02-25T03:37:09.416Z,4.60
2023-02-25T03:39:41.102Z,4.60
2023-02-25T03:42:12.983Z,4.60
2023-02-25T03:44:47.166Z,4.60
2023-02-25T03:47:17.153Z,4.60
2023-02-25T03:49:51.427Z,4.50
2023-02-25T03:52:22.774Z,4.50
2023-02-25T03:54:55.250Z,4.60
2023-02-25T03:57:25.565Z,4.60
2023-02-25T03:59:56.248Z,4.60
2023-02-25T04:02:28.274Z,4.60
2023-02-25T04:04:58.057Z,4.70
2023-02-25T04:07:27.145Z,4.70
2023-02-25T04:09:55.089Z,4.70
2023-02-25T04:12:23.074Z,4.80
2023-02-25T04:14:51.069Z,4.70
2023-02-25T04:17:19.280Z,4.70
2023-02-25T04:19:47.183Z,4.70
2023-02-25T04:22:16.444Z,4.70
2023-02-25T04:24:44.551Z,4.70
2023-02-25T04:27:15.520Z,4.70
2023-02-25T04:29:44.343Z,4.80
2023-02-25T04:32:13.050Z,4.80
2023-02-25T04:34:41.074Z,4.80
2023-02-25T04:37:09.914Z,4.70
2023-02-25T04:39:39.232Z,4.70
2023-02-25T04:42:07.257Z,4.70
2023-02-25T04:44:35.459Z,4.70
2023-02-25T04:47:03.865Z,4.80
2023-02-25T04:49:31.939Z,4.70
2023-02-25T04:51:59.935Z,4.70
2023-02-25T04:54:27.843Z,4.70
2023-02-25T04:56:57.199Z,4.70
2023-02-25T04:59:26.606Z,4.70
2023-02-25T05:01:54.765Z,4.70
2023-02-25T05:04:22.825Z,4.70
2023-02-25T05:06:50.766Z,4.70
2023-02-25T05:09:18.742Z,4.70
2023-02-25T05:11:46.680Z,4.70
2023-02-25T05:14:16.120Z,4.70
2023-02-25T05:16:44.029Z,4.70
2023-02-25T05:19:17.292Z,4.70
2023-02-25T05:21:45.935Z,4.70
2023-02-25T05:24:13.943Z,4.70
2023-02-25T05:26:42.078Z,4.70
2023-02-25T05:29:10.566Z,4.70
2023-02-25T05:31:41.076Z,4.70
2023-02-25T05:34:09.142Z,4.60
2023-02-25T05:36:37.062Z,4.70
2023-02-25T05:39:06.478Z,4.70
2023-02-25T05:41:34.456Z,4.80
2023-02-25T05:44:02.482Z,4.90
2023-02-25T05:46:30.485Z,4.80
2023-02-25T05:48:59.777Z,4.80
2023-02-25T05:51:27.918Z,4.70
2023-02-25T05:53:57.298Z,4.70
2023-02-25T05:56:30.055Z,4.70
2023-02-25T05:58:59.628Z,4.70
2023-02-25T06:01:29.397Z,4.70
2023-02-25T06:03:59.577Z,4.70
2023-02-25T06:06:29.522Z,4.70
2023-02-25T06:08:57.710Z,4.70
2023-02-25T06:11:27.492Z,4.70
2023-02-25T06:13:57.339Z,4.70
2023-02-25T06:16:30.076Z,4.80
2023-02-25T06:19:00.872Z,4.90
2023-02-25T06:21:28.900Z,5.10
2023-02-25T06:23:56.964Z,5.20
2023-02-25T06:26:25.276Z,5.10
2023-02-25T06:28:53.674Z,5.00
2023-02-25T06:31:23.530Z,5.00
2023-02-25T06:33:52.174Z,4.90
2023-02-25T06:36:22.085Z,4.90
2023-02-25T06:38:50.351Z,4.80
2023-02-25T06:41:20.015Z,4.80
2023-02-25T06:43:51.935Z,4.80
2023-02-25T06:46:22.103Z,4.70
2023-02-25T06:48:50.341Z,4.80
2023-02-25T06:51:18.481Z,4.70
2023-02-25T06:53:48.622Z,4.80
2023-02-25T06:56:20.088Z,4.80
2023-02-25T06:58:48.299Z,4.80
2023-02-25T07:01:17.631Z,5.10
2023-02-25T07:03:45.683Z,4.70
2023-02-25T07:06:15.859Z,4.70
2023-02-25T07:08:43.938Z,4.70
2023-02-25T07:11:29.008Z,4.70
2023-02-25T07:13:57.555Z,4.80
2023-02-25T07:16:26.094Z,4.80
2023-02-25T07:18:54.258Z,4.80
2023-02-25T07:21:22.931Z,4.90
2023-02-25T07:23:51.438Z,4.90
2023-02-25T07:26:20.819Z,4.80
2023-02-25T07:28:49.098Z,4.90
2023-02-25T07:31:21.866Z,4.90
2023-02-25T07:33:50.271Z,4.90
2023-02-25T07:36:18.699Z,4.90
2023-02-25T07:38:48.495Z,4.90
2023-02-25T07:41:18.983Z,4.90
2023-02-25T07:43:48.236Z,5.00
2023-02-25T07:46:16.267Z,5.00
2023-02-25T07:48:44.243Z,5.10
2023-02-25T07:51:15.431Z,5.10
2023-02-25T07:53:43.775Z,5.20
2023-02-25T07:56:12.247Z,5.10
2023-02-25T07:58:40.986Z,5.10
2023-02-25T08:01:17.254Z,5.10
2023-02-25T08:03:45.467Z,5.20
2023-02-25T08:06:13.420Z,5.20
2023-02-25T08:08:41.467Z,5.20
2023-02-25T08:11:11.318Z,5.20
2023-02-25T08:13:39.990Z,5.30
2023-02-25T08:16:10.671Z,5.40
2023-02-25T08:18:39.255Z,5.40
2023-02-25T08:21:07.207Z,5.50
2023-02-25T08:23:35.215Z,5.50
2023-02-25T08:26:03.833Z,5.50
2023-02-25T08:28:34.439Z,5.60
2023-02-25T08:31:04.707Z,5.60
2023-02-25T08:33:34.051Z,5.60
2023-02-25T08:36:09.565Z,5.60
2023-02-25T08:38:38.256Z,5.60
2023-02-25T08:41:06.999Z,5.70
2023-02-25T08:43:35.284Z,5.80
2023-02-25T08:46:03.760Z,5.90
2023-02-25T08:48:33.702Z,5.90
2023-02-25T08:51:04.288Z,5.90
2023-02-25T08:53:32.293Z,6.00
2023-02-25T08:56:03.622Z,6.00
2023-02-25T08:58:31.604Z,5.90
2023-02-25T09:00:59.724Z,5.90
2023-02-25T09:03:27.720Z,5.90
2023-02-25T09:05:58.037Z,5.90
2023-02-25T09:08:26.275Z,5.90
2023-02-25T09:10:54.234Z,5.90
2023-02-25T09:13:22.210Z,6.00
2023-02-25T09:15:57.462Z,6.10
2023-02-25T09:18:25.728Z,6.00
2023-02-25T09:20:54.032Z,6.10
2023-02-25T09:23:23.396Z,6.10
2023-02-25T09:25:51.486Z,6.10
2023-02-25T09:28:19.513Z,6.10
2023-02-25T09:30:48.344Z,6.10
2023-02-25T09:33:16.342Z,6.10
2023-02-25T09:35:45.201Z,6.10
2023-02-25T09:38:13.471Z,6.10
2023-02-25T09:40:47.085Z,6.10
2023-02-25T09:43:21.916Z,6.10
2023-02-25T09:45:53.851Z,6.00
2023-02-25T09:48:27.616Z,6.00
2023-02-25T09:51:03.768Z,5.90
2023-02-25T09:53:37.645Z,5.90
2023-02-25T09:56:09.233Z,5.90
2023-02-25T09:58:41.736Z,5.80
2023-02-25T10:01:15.734Z,5.80
2023-02-25T10:03:54.792Z,5.80
2023-02-25T10:06:30.109Z,5.80
2023-02-25T10:09:07.031Z,5.90
2023-02-25T10:11:47.400Z,6.00
2023-02-25T10:14:32.734Z,6.20
2023-02-25T10:17:07.132Z,6.20
2023-02-25T10:19:49.389Z,6.30
2023-02-25T10:22:36.416Z,6.40
2023-02-25T10:25:13.339Z,6.60
2023-02-25T10:27:49.156Z,6.50
2023-02-25T10:30:20.824Z,6.50
2023-02-25T10:32:49.961Z,6.50
2023-02-25T10:35:24.148Z,6.50
2023-02-25T10:37:52.600Z,6.60
2023-02-25T10:40:22.558Z,6.50
2023-02-25T10:42:55.155Z,6.40
2023-02-25T10:45:25.688Z,6.40
2023-02-25T10:48:03.173Z,6.30
2023-02-25T10:50:44.545Z,6.30
2023-02-25T10:53:16.366Z,6.20
2023-02-25T10:55:52.366Z,6.30
2023-02-25T10:58:33.378Z,6.60
2023-02-25T11:01:06.907Z,6.70
2023-02-25T11:03:42.239Z,6.80
2023-02-25T11:06:14.076Z,6.90
2023-02-25T11:08:42.443Z,6.80
2023-02-25T11:11:17.851Z,6.90
2023-02-25T11:13:56.240Z,6.90
2023-02-25T11:16:24.520Z,6.80
2023-02-25T11:18:55.227Z,6.80
2023-02-25T11:21:32.260Z,6.90
2023-02-25T11:24:03.524Z,7.00
2023-02-25T11:26:35.896Z,7.00
2023-02-25T11:29:10.941Z,7.00
2023-02-25T11:31:41.728Z,7.10
2023-02-25T11:34:16.965Z,7.10
2023-02-25T11:36:46.367Z,7.00
2023-02-25T11:39:19.245Z,7.00
2023-02-25T11:41:49.488Z,7.00
2023-02-25T11:44:30.563Z,7.00
2023-02-25T11:47:04.204Z,7.00
2023-02-25T11:50:06.010Z,7.00
2023-02-25T11:52:41.191Z,6.90
2023-02-25T11:55:20.409Z,6.70
2023-02-25T11:57:59.929Z,6.50
2023-02-25T12:00:36.304Z,6.40
2023-02-25T12:03:21.193Z,6.50
2023-02-25T12:06:01.777Z,6.70
2023-02-25T12:08:51.227Z,6.80
2023-02-25T12:11:50.519Z,6.80
2023-02-25T12:15:01.404Z,7.00
2023-02-25T12:18:10.587Z,7.30
2023-02-25T12:21:24.452Z,7.70
2023-02-25T12:24:24.824Z,7.80
2023-02-25T12:27:18.091Z,7.80
2023-02-25T12:30:03.039Z,7.70
2023-02-25T12:32:46.342Z,7.50
2023-02-25T12:35:53.805Z,7.40
2023-02-25T12:39:00.878Z,7.50
2023-02-25T12:41:39.531Z,7.30
2023-02-25T12:44:35.710Z,7.10
2023-02-25T12:47:17.840Z,7.00
2023-02-25T12:50:22.130Z,7.10
2023-02-25T12:53:04.925Z,7.00
2023-02-25T12:55:53.994Z,7.00
2023-02-25T12:58:48.634Z,7.00
2023-02-25T13:01:45.151Z,6.90
2023-02-25T13:04:43.234Z,6.80
2023-02-25T13:07:48.713Z,6.70
2023-02-25T13:10:54.258Z,6.60
2023-02-25T13:13:55.549Z,6.50
2023-02-25T13:16:36.555Z,6.40
2023-02-25T13:19:33.613Z,6.30
2023-02-25T13:22:09.128Z,6.30
2023-02-25T13:24:48.935Z,6.20
2023-02-25T13:27:43.778Z,6.30
2023-02-25T13:30:24.667Z,6.30
2023-02-25T13:33:04.903Z,6.30
2023-02-25T13:35:42.117Z,6.40
2023-02-25T13:38:24.930Z,6.40
2023-02-25T13:41:07.480Z,6.30
2023-02-25T13:44:20.345Z,6.30
2023-02-25T13:47:01.143Z,6.40
2023-02-25T13:50:04.451Z,6.40
2023-02-25T13:52:37.873Z,6.40
2023-02-25T13:55:27.983Z,6.50
2023-02-25T13:58:13.827Z,6.40
2023-02-25T14:01:13.112Z,6.50
2023-02-25T14:03:59.461Z,6.50
2023-02-25T14:06:47.288Z,6.60
2023-02-25T14:09:32.769Z,6.80
2023-02-25T14:12:13.097Z,7.00
2023-02-25T14:15:32.624Z,7.10
2023-02-25T14:18:13.237Z,7.10
2023-02-25T14:20:50.175Z,7.10
2023-02-25T14:23:29.776Z,7.10
2023-02-25T14:26:22.655Z,7.20
2023-02-25T14:29:04.517Z,7.20
2023-02-25T14:31:39.742Z,7.20
2023-02-25T14:34:28.422Z,7.10
2023-02-25T14:37:17.325Z,7.00
2023-02-25T14:40:06.321Z,6.90
2023-02-25T14:42:53.668Z,6.90
2023-02-25T14:45:25.040Z,7.00
2023-02-25T14:47:59.579Z,7.00
2023-02-25T14:50:32.452Z,6.90
2023-02-25T14:53:34.045Z,6.90
2023-02-25T14:56:47.432Z,6.90
2023-02-25T14:59:44.002Z,6.90
2023-02-25T15:02:29.194Z,7.10
2023-02-25T15:05:21.508Z,7.20
2023-02-25T15:08:32.472Z,7.30
2023-02-25T15:11:25.993Z,7.30
2023-02-25T15:14:27.118Z,7.30
2023-02-25T15:17:27.727Z,7.20
2023-02-25T15:20:22.488Z,7.20
2023-02-25T15:23:08.679Z,7.30
2023-02-25T15:25:40.507Z,7.30
2023-02-25T15:28:38.758Z,7.30
2023-02-25T15:31:30.516Z,7.30
2023-02-25T15:34:36.248Z,7.30
2023-02-25T15:37:35.275Z,7.20
2023-02-25T15:40:44.894Z,7.10
2023-02-25T15:43:39.124Z,7.00
2023-02-25T15:46:40.268Z,6.90
2023-02-25T15:49:27.296Z,6.80
2023-02-25T15:51:57.650Z,6.70
2023-02-25T15:54:48.720Z,6.50
2023-02-25T15:57:37.248Z,6.40
2023-02-25T16:00:35.402Z,6.30
2023-02-25T16:03:08.428Z,6.20
2023-02-25T16:05:43.314Z,6.10
2023-02-25T16:08:23.345Z,6.10
2023-02-25T16:10:54.154Z,6.20
2023-02-25T16:13:29.078Z,6.30
2023-02-25T16:15:58.354Z,6.20
2023-02-25T16:18:32.575Z,6.10
2023-02-25T16:21:04.518Z,5.90
2023-02-25T16:23:33.239Z,5.70
2023-02-25T16:26:10.459Z,5.60
2023-02-25T16:28:56.951Z,5.40
2023-02-25T16:31:31.712Z,5.30
2023-02-25T16:34:06.362Z,5.10
2023-02-25T16:36:44.227Z,5.00
2023-02-25T16:39:17.201Z,4.90
2023-02-25T16:41:45.331Z,4.80
2023-02-25T16:44:20.515Z,4.80
2023-02-25T16:46:51.886Z,4.70
2023-02-25T16:49:25.277Z,4.60
2023-02-25T16:51:54.253Z,4.50
2023-02-25T16:54:25.842Z,4.50
2023-02-25T16:56:58.908Z,4.40
2023-02-25T16:59:32.725Z,4.40
2023-02-25T17:02:03.800Z,4.30
2023-02-25T17:04:34.829Z,4.20
2023-02-25T17:07:14.307Z,4.20
2023-02-25T17:09:47.587Z,4.10
2023-02-25T17:12:19.560Z,4.10
2023-02-25T17:14:51.713Z,4.00
2023-02-25T17:17:25.244Z,4.00
2023-02-25T17:19:53.422Z,4.00
2023-02-25T17:22:23.227Z,4.00
2023-02-25T17:24:53.742Z,4.00
2023-02-25T17:27:23.294Z,4.00
2023-02-25T17:29:52.826Z,4.00
2023-02-25T17:32:24.397Z,4.00
2023-02-25T17:34:55.269Z,4.00
2023-02-25T17:37:26.066Z,4.00
2023-02-25T17:39:54.948Z,4.00
2023-02-25T17:42:28.946Z,3.90
2023-02-25T17:44:58.567Z,3.80
2023-02-25T17:47:29.192Z,3.80
2023-02-25T17:49:59.040Z,3.70
2023-02-25T17:52:30.194Z,3.70
2023-02-25T17:55:01.660Z,3.70
2023-02-25T17:57:32.257Z,3.70
2023-02-25T18:00:10.535Z,3.80
2023-02-25T18:02:40.331Z,3.70
2023-02-25T18:05:27.964Z,3.70
2023-02-25T18:08:16.475Z,3.60
2023-02-25T18:10:49.488Z,3.50
2023-02-25T18:13:34.999Z,3.40
2023-02-25T18:16:35.972Z,3.40
2023-02-25T18:19:32.843Z,3.30
2023-02-25T18:22:01.201Z,3.20
2023-02-25T18:24:33.013Z,3.10
2023-02-25T18:27:07.485Z,3.10
2023-02-25T18:29:35.617Z,3.00
2023-02-25T18:32:05.300Z,3.00
2023-02-25T18:34:33.344Z,2.90
2023-02-25T18:37:01.569Z,2.90
2023-02-25T18:42:24.861Z,2.80
2023-02-25T18:44:53.095Z,2.80
2023-02-25T18:47:22.981Z,2.70
2023-02-25T18:49:52.122Z,3.30
2023-02-25T18:52:23.479Z,2.70
2023-02-25T18:54:51.552Z,2.70
2023-02-25T18:57:23.508Z,2.60
2023-02-25T18:59:51.791Z,2.60
2023-02-25T19:02:29.586Z,2.50
2023-02-25T19:04:58.475Z,2.50
2023-02-25T19:07:28.391Z,2.90
2023-02-25T19:09:57.496Z,3.60
2023-02-25T19:12:27.983Z,2.50
2023-02-25T19:15:00.502Z,2.50
2023-02-25T19:17:31.438Z,2.70
2023-02-25T19:19:59.780Z,2.50
2023-02-25T19:22:27.936Z,2.40
2023-02-25T19:24:56.024Z,2.70
2023-02-25T19:27:27.678Z,2.40
2023-02-25T19:29:58.248Z,2.30
2023-02-25T19:32:27.425Z,2.30
2023-02-25T19:34:56.824Z,2.30
2023-02-25T19:37:28.751Z,2.50
2023-02-25T19:39:56.786Z,2.80
2023-02-25T19:42:24.789Z,2.40
2023-02-25T19:44:52.871Z,2.10
2023-02-25T19:47:20.889Z,2.60
2023-02-25T19:49:48.938Z,2.10
2023-02-25T19:52:18.641Z,2.10
2023-02-25T19:54:46.859Z,2.10
2023-02-25T19:57:14.949Z,2.50
2023-02-25T19:59:42.993Z,2.10
2023-02-25T20:02:13.385Z,2.10
2023-02-25T20:04:41.663Z,2.10
2023-02-25T20:07:10.337Z,2.10
2023-02-25T20:09:39.940Z,2.00
2023-02-25T20:12:08.625Z,2.00
2023-02-25T20:14:38.515Z,2.00
2023-02-25T20:17:06.970Z,2.00
2023-02-25T20:19:35.266Z,2.00
2023-02-25T20:22:05.655Z,2.30
2023-02-25T20:24:34.961Z,2.30
2023-02-25T20:27:05.428Z,1.90
2023-02-25T20:29:34.082Z,1.90
2023-02-25T20:32:03.111Z,1.80
2023-02-25T20:34:31.870Z,1.80
2023-02-25T20:37:06.902Z,1.70
2023-02-25T20:39:50.350Z,2.00
2023-02-25T20:42:23.464Z,1.70
2023-02-25T20:44:53.434Z,1.70
2023-02-25T20:47:23.766Z,1.70
2023-02-25T20:49:52.411Z,1.60
2023-02-25T20:52:20.978Z,1.60
2023-02-25T20:54:50.671Z,1.60
2023-02-25T20:57:25.639Z,1.60
2023-02-25T21:00:01.488Z,1.50
2023-02-25T21:02:32.234Z,1.50
2023-02-25T21:05:00.267Z,1.50
2023-02-25T21:07:28.592Z,1.50
2023-02-25T21:09:58.931Z,2.10
2023-02-25T21:12:30.885Z,1.40
2023-02-25T21:14:59.508Z,1.40
2023-02-25T21:17:27.569Z,1.40
2023-02-25T21:19:55.648Z,1.40
2023-02-25T21:22:23.687Z,1.30
2023-02-25T21:24:51.879Z,1.30
2023-02-25T21:27:20.037Z,1.30
2023-02-25T21:29:49.702Z,1.30
2023-02-25T21:32:18.240Z,1.20
2023-02-25T21:34:46.509Z,1.70
2023-02-25T21:37:14.817Z,1.20
2023-02-25T21:39:43.124Z,1.20
2023-02-25T21:42:11.342Z,1.30
2023-02-25T21:44:39.528Z,1.20
2023-02-25T21:47:10.560Z,2.20
2023-02-25T21:49:40.876Z,1.10
2023-02-25T21:52:10.626Z,1.10
2023-02-25T21:54:38.706Z,1.10
2023-02-25T21:57:10.600Z,1.00
2023-02-25T21:59:38.731Z,1.00
2023-02-25T22:02:10.116Z,1.00
2023-02-25T22:04:39.660Z,1.00
2023-02-25T22:07:07.985Z,0.90
2023-02-25T22:09:36.508Z,0.90
2023-02-25T22:12:04.749Z,0.80
2023-02-25T22:14:32.857Z,0.90
2023-02-25T22:17:02.076Z,0.80
2023-02-25T22:19:33.767Z,0.80
2023-02-25T22:22:03.318Z,0.80
2023-02-25T22:24:32.332Z,0.70
2023-02-25T22:27:00.372Z,1.40
2023-02-25T22:29:28.506Z,1.20
2023-02-25T22:31:56.794Z,0.70
2023-02-25T22:34:26.397Z,0.80
2023-02-25T22:36:54.993Z,0.80
2023-02-25T22:39:24.445Z,0.70
2023-02-25T22:41:52.564Z,0.70
2023-02-25T22:44:22.072Z,0.70
2023-02-25T22:46:54.997Z,0.70
2023-02-25T22:49:23.382Z,0.60
2023-02-25T22:51:51.501Z,0.60
2023-02-25T22:54:20.605Z,0.60
2023-02-25T22:56:50.866Z,0.50
2023-02-25T22:59:19.772Z,0.50
2023-02-25T23:01:47.851Z,0.50
2023-02-25T23:04:16.160Z,0.50
2023-02-25T23:06:45.320Z,0.50
2023-02-25T23:09:14.783Z,0.40
2023-02-25T23:11:44.054Z,0.40
2023-02-25T23:14:14.816Z,0.40
2023-02-25T23:16:44.832Z,0.30
2023-02-25T23:19:16.223Z,0.30
2023-02-25T23:21:45.170Z,0.30
2023-02-25T23:24:16.512Z,0.30
2023-02-25T23:26:46.142Z,0.20
2023-02-25T23:29:15.905Z,0.20
2023-02-25T23:31:45.727Z,0.10
2023-02-25T23:34:18.100Z,0.10
2023-02-25T23:36:47.324Z,0.10
2023-02-25T23:39:16.522Z,0.60
2023-02-25T23:41:45.235Z,0.10
2023-02-25T23:44:15.682Z,0.30
2023-02-25T23:46:44.968Z,0.10
2023-02-25T23:49:15.534Z,0.10
2023-02-25T23:51:44.648Z,0.10
2023-02-25T23:54:16.510Z,0.10
2023-02-25T23:56:45.106Z,0.10
2023-02-25T23:59:14.888Z,0.60
